createdAt,value
2018-08-12T00:00:28.052Z,18.23
2018-08-12T00:02:56.992Z,18.13
2018-08-12T00:05:24.737Z,18.14
2018-08-12T00:07:52.672Z,17.95
2018-08-12T00:10:20.906Z,17.92
2018-08-12T00:12:48.610Z,18.05
2018-08-12T00:15:19.315Z,17.83
2018-08-12T00:17:47.091Z,17.61
2018-08-12T00:20:17.735Z,17.81
2018-08-12T00:22:46.197Z,17.68
2018-08-12T00:25:18.509Z,17.62
2018-08-12T00:27:46.121Z,17.48
2018-08-12T00:30:16.881Z,17.51
2018-08-12T00:32:44.593Z,17.46
2018-08-12T00:35:14.553Z,17.49
2018-08-12T00:37:42.442Z,17.59
2018-08-12T00:40:13.086Z,17.66
2018-08-12T00:42:40.826Z,17.45
2018-08-12T00:45:11.598Z,17.42
2018-08-12T00:47:39.261Z,17.63
2018-08-12T00:50:08.441Z,17.52
2018-08-12T00:52:36.133Z,17.31
2018-08-12T00:55:05.149Z,17.45
2018-08-12T00:57:32.798Z,17.56
2018-08-12T01:00:00.669Z,17.34
2018-08-12T01:02:28.356Z,17.45
2018-08-12T01:04:56.057Z,17.63
2018-08-12T01:07:23.850Z,17.77
2018-08-12T01:09:51.600Z,17.63
2018-08-12T01:12:19.386Z,17.60
2018-08-12T01:14:47.082Z,17.52
2018-08-12T01:17:14.781Z,17.52
2018-08-12T01:19:42.569Z,17.67
2018-08-12T01:22:10.240Z,17.76
2018-08-12T01:24:38.007Z,17.79
2018-08-12T01:27:05.697Z,17.47
2018-08-12T01:29:33.447Z,17.54
2018-08-12T01:32:01.140Z,17.50
2018-08-12T01:34:28.777Z,17.43
2018-08-12T01:36:56.477Z,17.33
2018-08-12T01:39:24.131Z,17.40
2018-08-12T01:41:51.853Z,17.56
2018-08-12T01:44:19.835Z,17.40
2018-08-12T01:46:47.470Z,17.28
2018-08-12T01:49:15.117Z,17.11
2018-08-12T01:51:42.845Z,17.26
2018-08-12T01:54:10.477Z,17.28
2018-08-12T01:56:38.133Z,17.25
2018-08-12T01:59:06.173Z,17.06
2018-08-12T02:01:33.904Z,16.98
2018-08-12T02:04:04.934Z,16.78
2018-08-12T02:06:32.577Z,16.90
2018-08-12T02:09:00.252Z,16.85
2018-08-12T02:11:27.926Z,16.83
2018-08-12T02:13:55.621Z,16.99
2018-08-12T02:16:23.397Z,16.91
2018-08-12T02:18:50.994Z,16.80
2018-08-12T02:21:18.641Z,16.79
2018-08-12T02:23:46.321Z,16.84
2018-08-12T02:26:13.945Z,16.50
2018-08-12T02:28:41.738Z,16.65
2018-08-12T02:31:09.382Z,16.67
2018-08-12T02:33:37.076Z,16.86
2018-08-12T02:36:04.749Z,16.95
2018-08-12T02:38:32.385Z,16.78
2018-08-12T02:41:00.058Z,16.74
2018-08-12T02:43:27.731Z,16.91
2018-08-12T02:45:55.397Z,17.10
2018-08-12T02:48:23.127Z,17.20
2018-08-12T02:50:50.759Z,17.23
2018-08-12T02:53:18.514Z,17.26
2018-08-12T02:55:49.185Z,17.32
2018-08-12T02:58:16.816Z,17.28
2018-08-12T03:00:44.598Z,17.28
2018-08-12T03:06:19.768Z,17.17
2018-08-12T03:08:47.468Z,17.18
2018-08-12T03:11:15.108Z,17.19
2018-08-12T03:13:42.801Z,17.24
2018-08-12T03:16:10.490Z,17.25
2018-08-12T03:18:38.121Z,17.23
2018-08-12T03:21:06.449Z,17.20
2018-08-12T03:23:34.211Z,17.18
2018-08-12T03:26:02.176Z,17.18
2018-08-12T03:28:29.821Z,17.20
2018-08-12T03:30:57.681Z,17.18
2018-08-12T03:33:25.450Z,17.12
2018-08-12T03:35:53.461Z,17.03
2018-08-12T03:38:21.089Z,16.98
2018-08-12T03:40:48.857Z,16.98
2018-08-12T03:43:16.532Z,16.97
2018-08-12T03:45:44.282Z,16.96
2018-08-12T03:48:11.953Z,16.92
2018-08-12T03:50:39.943Z,16.90
2018-08-12T03:53:07.704Z,16.89
2018-08-12T03:55:35.429Z,16.85
2018-08-12T03:58:03.089Z,16.85
2018-08-12T04:00:30.749Z,16.77
2018-08-12T04:02:58.421Z,16.76
2018-08-12T04:05:26.152Z,16.75
2018-08-12T04:07:53.861Z,16.75
2018-08-12T04:10:24.921Z,16.72
2018-08-12T04:12:52.710Z,16.69
2018-08-12T04:15:20.667Z,16.64
2018-08-12T04:17:48.377Z,16.66
2018-08-12T04:20:16.062Z,16.66
2018-08-12T04:22:43.836Z,16.65
2018-08-12T04:25:11.489Z,16.63
2018-08-12T04:27:39.125Z,16.64
2018-08-12T04:30:08.245Z,16.65
2018-08-12T04:32:36.065Z,16.59
2018-08-12T04:35:05.170Z,16.46
2018-08-12T04:37:32.882Z,16.38
2018-08-12T04:40:00.729Z,16.47
2018-08-12T04:42:28.405Z,16.41
2018-08-12T04:44:56.069Z,16.27
2018-08-12T04:47:23.782Z,16.07
2018-08-12T04:49:51.477Z,16.20
2018-08-12T04:52:19.138Z,16.24
2018-08-12T04:54:46.809Z,16.15
2018-08-12T04:57:14.441Z,15.98
2018-08-12T04:59:42.118Z,15.95
2018-08-12T05:02:09.860Z,15.91
2018-08-12T05:04:37.575Z,16.20
2018-08-12T05:07:05.653Z,16.35
2018-08-12T05:09:33.421Z,16.21
2018-08-12T05:12:01.152Z,16.24
2018-08-12T05:14:28.813Z,16.64
2018-08-12T05:16:56.471Z,17.04
2018-08-12T05:19:24.210Z,17.03
2018-08-12T05:21:51.890Z,17.21
2018-08-12T05:24:19.549Z,17.40
2018-08-12T05:26:47.177Z,17.66
2018-08-12T05:29:14.829Z,17.87
2018-08-12T05:31:42.609Z,18.04
2018-08-12T05:34:10.351Z,18.10
2018-08-12T05:36:38.018Z,18.27
2018-08-12T05:39:09.103Z,17.98
2018-08-12T05:41:36.801Z,17.96
2018-08-12T05:44:04.893Z,18.32
2018-08-12T05:46:32.721Z,18.30
2018-08-12T05:49:00.329Z,18.67
2018-08-12T05:51:28.088Z,19.02
2018-08-12T05:53:55.725Z,18.92
2018-08-12T05:56:23.361Z,18.50
2018-08-12T05:58:51.217Z,18.60
2018-08-12T06:01:19.009Z,19.24
2018-08-12T06:03:47.002Z,19.33
2018-08-12T06:06:14.703Z,19.35
2018-08-12T06:08:42.502Z,19.53
2018-08-12T06:11:10.630Z,20.03
2018-08-12T06:13:38.349Z,20.24
2018-08-12T06:16:06.135Z,20.31
2018-08-12T06:18:33.818Z,20.54
2018-08-12T06:21:01.625Z,20.74
2018-08-12T06:23:29.376Z,20.82
2018-08-12T06:25:57.107Z,21.35
2018-08-12T06:28:24.741Z,21.78
2018-08-12T06:30:52.415Z,22.02
2018-08-12T06:33:20.073Z,21.69
2018-08-12T06:35:47.749Z,22.31
2018-08-12T06:38:15.498Z,22.24
2018-08-12T06:40:43.505Z,22.26
2018-08-12T06:43:11.262Z,22.68
2018-08-12T06:45:39.059Z,22.82
2018-08-12T06:48:06.805Z,23.15
2018-08-12T06:50:34.576Z,23.30
2018-08-12T06:53:02.238Z,23.49
2018-08-12T06:55:30.041Z,23.88
2018-08-12T06:57:57.729Z,24.15
2018-08-12T07:00:25.441Z,24.30
2018-08-12T07:02:53.169Z,24.13
2018-08-12T07:05:20.809Z,23.97
2018-08-12T07:07:48.600Z,23.84
2018-08-12T07:10:19.629Z,23.30
2018-08-12T07:12:47.314Z,23.74
2018-08-12T07:15:16.298Z,24.26
2018-08-12T07:17:44.998Z,24.57
2018-08-12T07:20:13.150Z,24.75
2018-08-12T07:22:41.000Z,24.93
2018-08-12T07:25:10.535Z,25.08
2018-08-12T07:27:39.105Z,25.25
2018-08-12T07:30:11.282Z,25.22
2018-08-12T07:32:38.942Z,25.29
2018-08-12T07:35:07.737Z,25.40
2018-08-12T07:37:36.486Z,25.57
2018-08-12T07:40:11.586Z,25.72
2018-08-12T07:42:39.393Z,25.79
2018-08-12T07:45:09.625Z,25.64
2018-08-12T07:47:37.317Z,26.19
2018-08-12T07:50:05.809Z,26.13
2018-08-12T07:52:33.501Z,26.33
2018-08-12T07:55:01.346Z,26.58
2018-08-12T07:57:29.082Z,26.67
2018-08-12T07:59:56.731Z,26.89
2018-08-12T08:02:24.425Z,27.07
2018-08-12T08:04:52.073Z,27.19
2018-08-12T08:07:19.719Z,27.24
2018-08-12T08:09:47.420Z,27.33
2018-08-12T08:12:18.298Z,27.47
2018-08-12T08:14:45.997Z,27.74
2018-08-12T08:17:13.681Z,27.62
2018-08-12T08:19:41.474Z,27.74
2018-08-12T08:22:09.069Z,27.60
2018-08-12T08:24:36.709Z,27.41
2018-08-12T08:27:04.372Z,27.17
2018-08-12T08:29:32.405Z,27.59
2018-08-12T08:32:00.289Z,27.80
2018-08-12T08:34:27.777Z,28.00
2018-08-12T08:36:55.425Z,27.99
2018-08-12T08:39:23.121Z,28.04
2018-08-12T08:41:50.777Z,28.14
2018-08-12T08:44:18.381Z,27.90
2018-08-12T08:46:46.097Z,27.63
2018-08-12T08:49:13.737Z,27.97
2018-08-12T08:51:41.506Z,28.01
2018-08-12T08:54:09.230Z,28.25
2018-08-12T08:56:36.949Z,28.42
2018-08-12T08:59:04.653Z,28.57
2018-08-12T09:01:33.353Z,28.35
2018-08-12T09:06:26.854Z,28.65
2018-08-12T09:08:55.020Z,28.91
2018-08-12T09:11:22.597Z,28.93
2018-08-12T09:13:50.624Z,28.78
2018-08-12T09:16:18.339Z,29.09
2018-08-12T09:18:50.487Z,29.35
2018-08-12T09:21:18.293Z,29.53
2018-08-12T09:23:45.986Z,29.39
2018-08-12T09:26:13.710Z,29.32
2018-08-12T09:28:41.446Z,29.37
2018-08-12T09:31:09.151Z,29.27
2018-08-12T09:33:36.866Z,29.36
2018-08-12T09:36:04.731Z,29.60
2018-08-12T09:38:32.429Z,29.09
2018-08-12T09:41:00.119Z,29.42
2018-08-12T09:43:27.843Z,29.67
2018-08-12T09:45:55.610Z,29.71
2018-08-12T09:48:23.319Z,29.81
2018-08-12T09:50:51.063Z,29.58
2018-08-12T09:53:18.778Z,29.60
2018-08-12T09:55:46.503Z,29.62
2018-08-12T09:58:14.256Z,29.80
2018-08-12T10:00:41.947Z,29.85
2018-08-12T10:03:10.530Z,29.98
2018-08-12T10:05:38.494Z,29.85
2018-08-12T10:08:06.230Z,29.81
2018-08-12T10:10:33.938Z,29.75
2018-08-12T10:13:01.666Z,29.62
2018-08-12T10:15:29.483Z,29.58
2018-08-12T10:17:58.924Z,29.47
2018-08-12T10:20:26.878Z,29.90
2018-08-12T10:22:54.703Z,29.99
2018-08-12T10:25:22.443Z,29.94
2018-08-12T10:27:50.394Z,30.16
2018-08-12T10:30:18.335Z,30.14
2018-08-12T10:32:46.062Z,30.32
2018-08-12T10:35:15.190Z,30.51
2018-08-12T10:37:43.248Z,30.73
2018-08-12T10:40:15.270Z,30.71
2018-08-12T10:42:44.124Z,30.51
2018-08-12T10:45:12.270Z,30.62
2018-08-12T10:47:40.542Z,30.76
2018-08-12T10:50:11.446Z,30.62
2018-08-12T10:52:40.319Z,30.39
2018-08-12T10:55:08.574Z,30.42
2018-08-12T10:57:36.946Z,30.38
2018-08-12T11:00:15.379Z,30.46
2018-08-12T11:02:43.461Z,30.68
2018-08-12T11:05:11.519Z,30.69
2018-08-12T11:07:39.299Z,30.73
2018-08-12T11:10:08.269Z,30.93
2018-08-12T11:12:36.112Z,30.92
2018-08-12T11:15:05.294Z,30.81
2018-08-12T11:17:33.015Z,30.92
2018-08-12T11:20:00.926Z,31.08
2018-08-12T11:22:28.651Z,31.19
2018-08-12T11:24:56.458Z,31.23
2018-08-12T11:27:24.187Z,31.37
2018-08-12T11:29:52.039Z,31.17
2018-08-12T11:32:19.748Z,31.32
2018-08-12T11:34:47.489Z,31.43
2018-08-12T11:37:15.190Z,31.20
2018-08-12T11:39:42.882Z,31.27
2018-08-12T11:42:10.618Z,31.28
2018-08-12T11:44:38.367Z,31.49
2018-08-12T11:47:06.103Z,31.72
2018-08-12T11:49:33.893Z,31.67
2018-08-12T11:52:01.858Z,31.79
2018-08-12T11:54:29.626Z,31.98
2018-08-12T11:56:57.548Z,32.23
2018-08-12T11:59:25.222Z,32.46
2018-08-12T12:01:53.111Z,32.71
2018-08-12T12:04:24.466Z,32.97
2018-08-12T12:06:52.131Z,33.20
2018-08-12T12:09:19.879Z,33.39
2018-08-12T12:11:47.574Z,33.79
2018-08-12T12:14:15.275Z,33.97
2018-08-12T12:16:43.214Z,34.47
2018-08-12T12:19:10.894Z,34.46
2018-08-12T12:21:38.622Z,34.07
2018-08-12T12:24:06.374Z,34.36
2018-08-12T12:26:34.091Z,34.34
2018-08-12T12:29:01.866Z,35.07
2018-08-12T12:31:29.566Z,35.47
2018-08-12T12:33:57.323Z,35.41
2018-08-12T12:36:25.066Z,35.52
2018-08-12T12:38:52.766Z,35.96
2018-08-12T12:41:20.750Z,35.72
2018-08-12T12:43:48.473Z,35.70
2018-08-12T12:46:16.194Z,35.82
2018-08-12T12:48:44.182Z,36.19
2018-08-12T12:51:11.890Z,36.63
2018-08-12T12:53:39.672Z,36.13
2018-08-12T12:56:07.444Z,35.82
2018-08-12T12:58:35.178Z,35.61
2018-08-12T13:01:02.932Z,34.98
2018-08-12T13:03:30.879Z,35.38
2018-08-12T13:05:58.638Z,34.78
2018-08-12T13:08:26.315Z,34.27
2018-08-12T13:10:54.052Z,34.66
2018-08-12T13:13:21.791Z,34.88
2018-08-12T13:15:49.519Z,34.82
2018-08-12T13:18:17.238Z,36.00
2018-08-12T13:20:44.954Z,35.45
2018-08-12T13:23:12.677Z,35.41
2018-08-12T13:25:43.756Z,35.36
2018-08-12T13:28:11.619Z,34.65
2018-08-12T13:30:39.707Z,34.85
2018-08-12T13:33:07.500Z,34.66
2018-08-12T13:35:35.271Z,34.67
2018-08-12T13:38:03.031Z,34.34
2018-08-12T13:40:30.746Z,34.41
2018-08-12T13:42:58.470Z,34.16
2018-08-12T13:45:26.280Z,34.29
2018-08-12T13:47:54.015Z,34.08
2018-08-12T13:50:23.261Z,33.97
2018-08-12T13:52:51.626Z,34.02
2018-08-12T13:55:20.012Z,34.02
2018-08-12T13:57:48.803Z,33.98
2018-08-12T14:00:19.006Z,34.20
2018-08-12T14:02:46.748Z,33.90
2018-08-12T14:05:16.406Z,32.74
2018-08-12T14:07:44.886Z,32.77
2018-08-12T14:10:12.686Z,32.90
2018-08-12T14:12:40.590Z,33.12
2018-08-12T14:15:11.496Z,33.19
2018-08-12T14:17:40.011Z,33.27
2018-08-12T14:20:08.990Z,33.39
2018-08-12T14:22:36.888Z,33.29
2018-08-12T14:25:05.350Z,33.43
2018-08-12T14:27:33.210Z,33.44
2018-08-12T14:30:01.211Z,33.38
2018-08-12T14:32:28.887Z,33.52
2018-08-12T14:34:56.696Z,33.30
2018-08-12T14:37:24.816Z,33.59
2018-08-12T14:39:52.548Z,33.46
2018-08-12T14:42:20.286Z,33.40
2018-08-12T14:44:48.061Z,33.68
2018-08-12T14:47:15.729Z,33.70
2018-08-12T14:49:43.637Z,33.44
2018-08-12T14:52:11.271Z,33.25
2018-08-12T14:54:38.945Z,33.20
2018-08-12T14:57:06.574Z,32.75
2018-08-12T14:59:34.338Z,32.68
2018-08-12T15:02:02.194Z,32.53
2018-08-12T15:04:29.863Z,32.90
2018-08-12T15:06:57.525Z,32.98
2018-08-12T15:09:25.180Z,33.06
2018-08-12T15:11:52.894Z,33.01
2018-08-12T15:14:20.587Z,33.13
2018-08-12T15:16:48.349Z,33.22
2018-08-12T15:19:16.054Z,33.10
2018-08-12T15:21:43.775Z,33.04
2018-08-12T15:24:11.437Z,33.00
2018-08-12T15:26:39.105Z,33.03
2018-08-12T15:29:06.797Z,33.00
2018-08-12T15:31:34.441Z,32.92
2018-08-12T15:34:02.125Z,32.57
2018-08-12T15:36:29.773Z,32.79
2018-08-12T15:38:57.441Z,32.95
2018-08-12T15:41:25.236Z,32.79
2018-08-12T15:43:53.029Z,32.94
2018-08-12T15:46:20.670Z,32.91
2018-08-12T15:48:48.317Z,32.68
2018-08-12T15:51:16.075Z,32.55
2018-08-12T15:53:43.693Z,32.78
2018-08-12T15:56:11.397Z,32.97
2018-08-12T15:58:39.148Z,33.02
2018-08-12T16:01:06.849Z,32.96
2018-08-12T16:03:34.690Z,32.56
2018-08-12T16:06:02.378Z,32.66
2018-08-12T16:08:30.022Z,32.68
2018-08-12T16:10:57.782Z,32.48
2018-08-12T16:13:25.543Z,32.46
2018-08-12T16:15:53.320Z,32.68
2018-08-12T16:18:21.007Z,32.69
2018-08-12T16:20:48.761Z,32.64
2018-08-12T16:23:16.443Z,32.49
2018-08-12T16:25:44.153Z,32.30
2018-08-12T16:28:11.821Z,31.84
2018-08-12T16:30:39.642Z,31.99
2018-08-12T16:33:07.302Z,32.10
2018-08-12T16:35:35.026Z,32.17
2018-08-12T16:38:02.707Z,32.47
2018-08-12T16:40:30.365Z,32.31
2018-08-12T16:42:58.137Z,32.46
2018-08-12T16:45:25.868Z,32.50
2018-08-12T16:47:53.553Z,32.32
2018-08-12T16:50:21.293Z,32.35
2018-08-12T16:52:48.957Z,32.35
2018-08-12T16:55:17.549Z,32.17
2018-08-12T16:57:46.149Z,32.21
2018-08-12T17:00:17.104Z,32.12
2018-08-12T17:02:45.026Z,32.10
2018-08-12T17:05:17.725Z,32.13
2018-08-12T17:07:45.497Z,32.09
2018-08-12T17:10:14.558Z,32.03
2018-08-12T17:12:42.269Z,32.07
2018-08-12T17:15:13.757Z,32.08
2018-08-12T17:17:41.345Z,32.00
2018-08-12T17:20:12.046Z,31.99
2018-08-12T17:22:40.701Z,31.99
2018-08-12T17:25:08.326Z,31.78
2018-08-12T17:27:36.186Z,31.89
2018-08-12T17:30:05.830Z,31.92
2018-08-12T17:32:33.609Z,31.88
2018-08-12T17:35:01.241Z,31.76
2018-08-12T17:37:29.539Z,31.74
2018-08-12T17:39:57.205Z,31.64
2018-08-12T17:42:28.478Z,31.63
2018-08-12T17:44:56.145Z,31.53
2018-08-12T17:47:23.789Z,31.50
2018-08-12T17:49:51.483Z,31.53
2018-08-12T17:52:19.208Z,31.40
2018-08-12T17:54:46.878Z,31.43
2018-08-12T17:57:14.551Z,31.35
2018-08-12T17:59:42.185Z,31.34
2018-08-12T18:02:10.030Z,31.27
2018-08-12T18:04:37.657Z,31.14
2018-08-12T18:07:05.328Z,31.15
2018-08-12T18:09:33.334Z,31.12
2018-08-12T18:12:01.514Z,31.08
2018-08-12T18:14:29.291Z,31.02
2018-08-12T18:16:56.934Z,30.95
2018-08-12T18:19:24.577Z,30.86
2018-08-12T18:21:52.241Z,30.79
2018-08-12T18:24:19.902Z,30.70
2018-08-12T18:26:47.578Z,30.62
2018-08-12T18:29:15.234Z,30.49
2018-08-12T18:31:42.898Z,30.41
2018-08-12T18:34:10.554Z,30.26
2018-08-12T18:36:38.225Z,30.13
2018-08-12T18:39:08.751Z,30.01
2018-08-12T18:41:36.412Z,29.84
2018-08-12T18:44:04.105Z,29.80
2018-08-12T18:46:31.813Z,29.66
2018-08-12T18:48:59.485Z,29.55
2018-08-12T18:51:27.173Z,29.44
2018-08-12T18:53:55.481Z,29.35
2018-08-12T18:56:23.193Z,29.22
2018-08-12T18:58:51.081Z,29.13
2018-08-12T19:01:18.763Z,29.05
2018-08-12T19:03:46.382Z,28.96
2018-08-12T19:06:14.018Z,28.82
2018-08-12T19:08:41.690Z,28.73
2018-08-12T19:11:09.376Z,28.67
2018-08-12T19:13:37.033Z,28.60
2018-08-12T19:16:05.047Z,28.51
2018-08-12T19:18:32.718Z,28.43
2018-08-12T19:21:00.386Z,28.35
2018-08-12T19:23:28.345Z,28.28
2018-08-12T19:25:56.104Z,28.19
2018-08-12T19:28:23.706Z,28.03
2018-08-12T19:30:51.385Z,27.91
2018-08-12T19:33:19.023Z,27.75
2018-08-12T19:37:45.685Z,27.37
2018-08-12T19:40:13.515Z,27.19
2018-08-12T19:42:41.351Z,27.05
2018-08-12T19:45:10.207Z,26.99
2018-08-12T19:47:38.042Z,26.97
2018-08-12T19:50:06.625Z,26.91
2018-08-12T19:52:34.582Z,26.85
2018-08-12T19:55:02.354Z,26.83
2018-08-12T19:57:30.168Z,26.81
2018-08-12T19:59:58.713Z,26.75
2018-08-12T20:02:26.491Z,26.72
2018-08-12T20:04:54.160Z,26.73
2018-08-12T20:07:23.062Z,26.70
2018-08-12T20:09:50.982Z,26.68
2018-08-12T20:12:18.841Z,26.63
2018-08-12T20:14:46.546Z,26.53
2018-08-12T20:17:14.274Z,26.54
2018-08-12T20:19:42.093Z,26.60
2018-08-12T20:22:13.818Z,26.50
2018-08-12T20:24:41.986Z,26.46
2018-08-12T20:27:10.363Z,26.41
2018-08-12T20:29:38.183Z,26.55
2018-08-12T20:32:06.586Z,26.58
2018-08-12T20:34:34.431Z,26.58
2018-08-12T20:37:02.155Z,26.55
2018-08-12T20:39:29.928Z,26.54
2018-08-12T20:41:57.942Z,26.45
2018-08-12T20:44:25.711Z,26.38
2018-08-12T20:46:53.373Z,26.36
2018-08-12T20:49:21.021Z,26.30
2018-08-12T20:51:48.709Z,26.30
2018-08-12T20:54:16.491Z,26.19
2018-08-12T20:56:44.173Z,26.07
2018-08-12T20:59:11.985Z,26.02
2018-08-12T21:01:39.638Z,26.06
2018-08-12T21:04:07.689Z,26.15
2018-08-12T21:06:35.357Z,26.23
2018-08-12T21:09:05.173Z,26.08
2018-08-12T21:11:32.871Z,25.95
2018-08-12T21:14:00.721Z,25.90
2018-08-12T21:16:28.623Z,25.98
2018-08-12T21:19:00.872Z,26.00
2018-08-12T21:21:28.550Z,25.92
2018-08-12T21:23:56.239Z,25.86
2018-08-12T21:26:23.927Z,25.86
2018-08-12T21:28:51.775Z,25.86
2018-08-12T21:31:19.945Z,25.81
2018-08-12T21:33:47.631Z,25.78
2018-08-12T21:36:15.353Z,25.74
2018-08-12T21:38:43.093Z,25.72
2018-08-12T21:41:10.827Z,25.70
2018-08-12T21:43:38.585Z,25.68
2018-08-12T21:46:06.734Z,25.66
2018-08-12T21:48:34.409Z,25.68
2018-08-12T21:51:02.215Z,25.67
2018-08-12T21:53:29.888Z,25.68
2018-08-12T21:55:58.053Z,25.66
2018-08-12T21:58:25.717Z,25.57
2018-08-12T22:00:54.097Z,25.59
2018-08-12T22:03:21.901Z,25.67
2018-08-12T22:05:49.813Z,25.52
2018-08-12T22:08:17.638Z,25.56
2018-08-12T22:10:45.354Z,25.59
2018-08-12T22:13:13.070Z,25.66
2018-08-12T22:15:40.777Z,25.71
2018-08-12T22:18:09.171Z,25.58
2018-08-12T22:20:36.957Z,25.72
2018-08-12T22:23:04.717Z,25.68
2018-08-12T22:25:32.417Z,25.80
2018-08-12T22:28:00.107Z,25.77
2018-08-12T22:30:27.803Z,25.63
2018-08-12T22:32:55.504Z,25.49
2018-08-12T22:35:23.162Z,25.65
2018-08-12T22:37:50.834Z,25.49
2018-08-12T22:40:18.506Z,25.35
2018-08-12T22:42:46.451Z,25.42
2018-08-12T22:45:14.133Z,25.57
2018-08-12T22:47:41.893Z,25.54
2018-08-12T22:50:09.604Z,25.50
2018-08-12T22:52:37.353Z,25.54
2018-08-12T22:55:05.945Z,25.40
2018-08-12T22:57:33.750Z,25.41
2018-08-12T23:00:01.455Z,25.23
2018-08-12T23:02:29.150Z,25.22
2018-08-12T23:04:57.253Z,25.27
2018-08-12T23:07:28.466Z,25.09
2018-08-12T23:09:56.166Z,25.17
2018-08-12T23:12:23.903Z,25.21
2018-08-12T23:14:51.618Z,25.12
2018-08-12T23:17:19.346Z,25.16
2018-08-12T23:19:47.009Z,25.17
2018-08-12T23:22:14.718Z,25.19
2018-08-12T23:24:42.405Z,25.19
2018-08-12T23:27:10.066Z,25.05
2018-08-12T23:29:37.742Z,25.01
2018-08-12T23:32:05.446Z,24.94
2018-08-12T23:34:33.096Z,25.04
2018-08-12T23:37:01.573Z,25.03
2018-08-12T23:39:29.257Z,24.97
2018-08-12T23:41:56.917Z,25.00
2018-08-12T23:44:24.819Z,24.93
2018-08-12T23:46:52.502Z,24.93
2018-08-12T23:49:20.185Z,24.83
2018-08-12T23:51:47.872Z,24.92
2018-08-12T23:54:15.534Z,24.89
2018-08-12T23:56:43.173Z,24.81
2018-08-12T23:59:10.989Z,24.83
